Terminal Aerodrome Forecast
Issued by NWS

Home | Current Version | Previous Version | Text Only | Print | Product List | Glossary On
Versions: 1 2 3 4 5 6 7 8 9 10 11 12 13
000
FTUS41 KAKQ 271120
TAFPHF
TAF
KPHF 271120Z 2712/2812 20005KT P6SM SCT050 BKN250
     FM271600 22009KT P6SM BKN060
     FM272100 21009KT P6SM VCSH BKN060
     FM280000 22008KT 5SM -SHRA OVC040=

USA.gov is the U.S. government's official web portal to all federal, state and local government web resources and services.